Tompkinsville, KY (42167)

10:13 PM CDT on September 21, 2014 (GMT -0500)
Center Point Ky | Change Station
CLOSE
Current Station
Personal Weather Station
Location: Tompkinsville, KY
Elevation: 740 ft
Nearby Weather Stations

Elev 740 ft 36.72 °N, 85.51 °W | Updated 13 minutes ago

Clear
Clear
59.4 °F
Feels Like 59.4 °F
N
0.0
Wind Variable Wind from NNW

Today
High -- | Low -- °F
--% Chance of Precip.
Yesterday
High -- | Low -- °F
Precip. -- in
6:29 AM 6:41 PM
Waning Crescent, 4% visible
Pressure 30.04 in
Visibility 10.0 miles
Clouds Clear
Dew Point 54 °F
Humidity 81%
Rainfall 0.00 in
Snow Depth Not available.
UV 0 out of 12
Pollen 6.50 out of 12
Air Quality Not available.
Flu Activity Not available.
METAR KGLW 220255Z AUTO 00000KT 10SM CLR 17/10 A3004 RMK AO2 T01680095

More Conditions Fewer Conditions

Pressure 30.04 in
Visibility 10.0 miles
Clouds Clear
Dew Point 54 °F
Humidity 81%
Rainfall 0.00 in
Snow Depth Not available.
UV 0 out of 12
Pollen 6.50 out of 12
Air Quality Not available.
Flu Activity Not available.
METAR KGLW 220255Z AUTO 00000KT 10SM CLR 17/10 A3004 RMK AO2 T01680095

More Conditions Fewer Conditions

10-Day Weather Forecast

Almanac

Astronomy

Sep. 21, 2014 Rise Set
Actual Time 6:29 AM CDT 6:41 PM CDT
Civil Twilight 6:04 AM CDT 7:06 PM CDT
Nautical Twilight 5:33 AM CDT 7:37 PM CDT
Astronomical Twilight 5:03 AM CDT 8:07 PM CDT
Moon 4:05 AM CDT (9/21) 5:14 PM CDT (9/21)
Length of Visible Light 13h 02m
Length of Day
12h 11m
Tomorrow will be 2m 19s shorter.
Waning Crescent, 4% of the Moon is Illuminated
Today
Waning Crescent
Sep 24
New
Oct 1
First Quarter
Oct 8
Full
Oct 15
Last Quarter

Today's Extremes

State Highs State Lows

Community

WunderPhotos

Upload Photos

1,755,371 photos uploaded!

WunderBlogs® & News

Nearby

Snow Depth

Station Depth Elevation
No new snow has been reported.

Earthquake Activity

City Distance Mag. Time & Date
Sweetwater, Tennessee 103 miles 2.5 2:54 PM CDT
2014-09-20
Minimum magnitude displayed is 2.5.

Coastal Water Temperatures

Place Temperature
No Stations Reporting

Nearby Weather Stations